Dayton, OH

8:48 PM EST on January 25, 2015 (GMT -0500)
Regent Park | Change Station
CLOSE
Current Station
Personal Weather Station
Location: Bellbrook, OH
Elevation: 902 ft
Nearby Weather Stations

Elev 902 ft 39.64 °N, 84.09 °W | Updated 46 seconds ago

Snow
Snow
31.6 °F
Feels Like 24 °F
N
8.9
Wind Variable Wind from NE

Today
High -- | Low -- °F
--% Chance of Precip.
Yesterday
High -- | Low -- °F
Precip. -- in
7:50 AM 5:47 PM
Waxing Crescent, 38% visible
Pressure 29.71 in
Visibility 1.0 miles
Clouds Mostly Cloudy 300 ft
Overcast 1200 ft
Windchill 24 °F
Dew Point 31 °F
Humidity 99%
Rainfall 0.22 in
Snow Depth Not available.
UV 0 out of 12
Pollen .10 out of 12
Air Quality Not available.
Flu Activity Not available.
SPECI KMGY 260112Z AUTO 05008KT 1SM -SN BR BKN003 OVC012 01/00 A2971 RMK AO2 P0002 T00060000

More Conditions Fewer Conditions

Pressure 29.71 in
Visibility 1.0 miles
Clouds Mostly Cloudy 300 ft
Overcast 1200 ft
Windchill 24 °F
Dew Point 31 °F
Humidity 99%
Rainfall 0.22 in
Snow Depth Not available.
UV 0 out of 12
Pollen .10 out of 12
Air Quality Not available.
Flu Activity Not available.
SPECI KMGY 260112Z AUTO 05008KT 1SM -SN BR BKN003 OVC012 01/00 A2971 RMK AO2 P0002 T00060000

More Conditions Fewer Conditions

10-Day Weather Forecast

Almanac

Astronomy

Jan. 25, 2015 Rise Set
Actual Time
Civil Twilight
Nautical Twilight
Astronomical Twilight
Moon
Length of Visible Light
Length of Day
Tomorrow will be .
, % of the Moon is Illuminated

Today's Extremes

State Highs State Lows

Community

WunderPhotos

Upload Photos

1,790,045 photos uploaded!

WunderBlogs® & News

Nearby

Air Quality

  Air Quality AQ Index Pollutant
Not available.

Snow Depth

Station Depth Elevation

Earthquake Activity

City Distance Mag. Time & Date
Minimum magnitude displayed is 2.5.

Coastal Water Temperatures

Place Temperature

Nearby Weather Stations